createdAt,value
2022-08-17T00:00:49.452Z,100557.28
2022-08-17T00:03:26.167Z,100553.22
2022-08-17T00:06:01.174Z,100583.91
2022-08-17T00:08:40.083Z,100555.09
2022-08-17T00:11:09.706Z,100592.06
2022-08-17T00:13:43.800Z,100553.06
2022-08-17T00:16:23.239Z,100548.66
2022-08-17T00:19:13.521Z,100581.56
2022-08-17T00:22:29.628Z,100558.31
2022-08-17T00:24:30.986Z,100586.31
2022-08-17T00:26:57.654Z,100566.44
2022-08-17T00:29:24.211Z,100568.16
2022-08-17T00:31:54.025Z,100545.25
2022-08-17T00:34:24.105Z,100542.16
2022-08-17T00:36:50.831Z,100556.28
2022-08-17T00:39:17.353Z,100590.53
2022-08-17T00:41:44.137Z,100546.06
2022-08-17T00:44:12.488Z,100586.31
2022-08-17T00:46:43.850Z,100564.00
2022-08-17T00:49:13.197Z,100568.06
2022-08-17T00:52:10.808Z,100586.75
2022-08-17T00:54:42.555Z,100564.00
2022-08-17T00:57:13.848Z,100535.88
2022-08-17T00:59:45.573Z,100534.69
2022-08-17T01:02:15.820Z,100551.03
2022-08-17T01:04:44.788Z,100531.84
2022-08-17T01:07:12.251Z,100579.69
2022-08-17T01:09:40.358Z,100573.56
2022-08-17T01:12:12.333Z,100583.25
2022-08-17T01:14:39.747Z,100566.13
2022-08-17T01:17:07.769Z,100544.41
2022-08-17T01:19:39.318Z,100558.75
2022-08-17T01:22:09.108Z,100594.69
2022-08-17T01:24:37.245Z,100592.13
2022-08-17T01:27:10.388Z,100595.56
2022-08-17T01:29:39.499Z,100605.97
2022-08-17T01:32:08.177Z,100552.69
2022-08-17T01:34:43.775Z,100595.97
2022-08-17T01:37:18.491Z,100556.56
2022-08-17T01:40:08.839Z,100571.59
2022-08-17T01:42:43.119Z,100601.41
2022-08-17T01:45:15.274Z,100582.88
2022-08-17T01:47:41.960Z,100583.03
2022-08-17T01:50:15.796Z,100606.13
2022-08-17T01:52:47.337Z,100607.00
2022-08-17T01:55:17.123Z,100609.25
2022-08-17T01:57:58.039Z,100604.84
2022-08-17T02:00:27.099Z,100580.63
2022-08-17T02:03:18.611Z,100614.63
2022-08-17T02:05:46.770Z,100559.66
2022-08-17T02:08:19.724Z,100565.34
2022-08-17T02:10:48.619Z,100571.88
2022-08-17T02:13:16.365Z,100564.38
2022-08-17T02:15:45.494Z,100568.41
2022-08-17T02:18:15.237Z,100572.56
2022-08-17T02:20:45.511Z,100569.78
2022-08-17T02:23:13.220Z,100595.69
2022-08-17T02:25:43.434Z,100561.16
2022-08-17T02:28:11.306Z,100595.84
2022-08-17T02:31:00.282Z,100618.88
2022-08-17T02:33:25.230Z,100569.59
2022-08-17T02:36:10.659Z,100578.38
2022-08-17T02:38:37.944Z,100584.59
2022-08-17T02:41:05.287Z,100561.03
2022-08-17T02:43:32.586Z,100551.91
2022-08-17T02:45:59.136Z,100582.25
2022-08-17T02:48:30.579Z,100582.06
2022-08-17T02:50:59.660Z,100574.00
2022-08-17T02:53:35.662Z,100572.06
2022-08-17T02:56:03.375Z,100606.53
2022-08-17T02:58:34.981Z,100604.47
2022-08-17T03:01:05.006Z,100591.97
2022-08-17T03:03:34.680Z,100567.41
2022-08-17T03:06:01.827Z,100592.00
2022-08-17T03:08:28.630Z,100575.13
2022-08-17T03:10:55.246Z,100601.31
2022-08-17T03:13:22.328Z,100584.50
2022-08-17T03:15:49.891Z,100562.72
2022-08-17T03:18:24.722Z,100604.50
2022-08-17T03:21:01.006Z,100588.72
2022-08-17T03:23:29.551Z,100598.44
2022-08-17T03:25:56.734Z,100568.47
2022-08-17T03:28:23.974Z,100591.91
2022-08-17T03:30:51.709Z,100573.78
2022-08-17T03:33:18.935Z,100548.56
2022-08-17T03:35:46.133Z,100603.13
2022-08-17T03:38:15.248Z,100581.84
2022-08-17T03:40:58.759Z,100581.91
2022-08-17T03:43:29.252Z,100577.59
2022-08-17T03:46:28.636Z,100583.00
2022-08-17T03:49:19.247Z,100592.69
2022-08-17T03:52:04.739Z,100588.28
2022-08-17T03:54:49.891Z,100594.06
2022-08-17T03:57:16.769Z,100580.66
2022-08-17T03:59:44.939Z,100564.44
2022-08-17T04:02:19.402Z,100577.84
2022-08-17T04:04:46.687Z,100581.47
2022-08-17T04:07:13.291Z,100605.31
2022-08-17T04:09:39.869Z,100589.09
2022-08-17T04:12:06.632Z,100578.88
2022-08-17T04:14:51.743Z,100599.53
2022-08-17T04:17:21.438Z,100586.50
2022-08-17T04:19:48.034Z,100599.06
2022-08-17T04:22:30.353Z,100567.56
2022-08-17T04:25:02.451Z,100593.47
2022-08-17T04:27:29.030Z,100576.22
2022-08-17T04:29:56.204Z,100608.25
2022-08-17T04:32:59.190Z,100548.00
2022-08-17T04:35:10.514Z,100605.91
2022-08-17T04:37:37.128Z,100606.31
2022-08-17T04:40:23.066Z,100547.72
2022-08-17T04:43:10.155Z,100584.56
2022-08-17T04:45:55.013Z,100584.38
2022-08-17T04:48:22.793Z,100604.13
2022-08-17T04:50:54.340Z,100601.66
2022-08-17T04:53:23.625Z,100613.09
2022-08-17T04:55:52.406Z,100608.59
2022-08-17T04:58:19.619Z,100584.72
2022-08-17T05:00:46.299Z,100601.56
2022-08-17T05:03:13.555Z,100628.91
2022-08-17T05:05:43.480Z,100612.41
2022-08-17T05:08:10.278Z,100609.91
2022-08-17T05:10:45.049Z,100624.28
2022-08-17T05:13:16.365Z,100607.19
2022-08-17T05:15:47.771Z,100600.72
2022-08-17T05:18:17.380Z,100597.34
2022-08-17T05:20:44.606Z,100612.09
2022-08-17T05:23:15.001Z,100585.09
2022-08-17T05:25:47.424Z,100618.34
2022-08-17T05:28:41.863Z,100602.44
2022-08-17T05:31:12.803Z,100623.28
2022-08-17T05:33:46.165Z,100626.31
2022-08-17T05:36:43.247Z,100652.28
2022-08-17T05:39:03.874Z,100643.75
2022-08-17T05:41:33.471Z,100636.81
2022-08-17T05:44:05.554Z,100620.50
2022-08-17T05:46:48.022Z,100607.97
2022-08-17T05:49:26.939Z,100660.88
2022-08-17T05:52:37.879Z,100664.91
2022-08-17T06:01:54.331Z,100635.78
2022-08-17T06:04:44.812Z,100656.31
2022-08-17T06:45:31.477Z,100670.34
2022-08-17T06:48:15.387Z,100680.47
2022-08-17T06:58:16.341Z,100661.47
2022-08-17T07:04:30.570Z,100681.72
2022-08-17T07:07:27.643Z,100683.69
2022-08-17T07:09:57.639Z,100665.22
2022-08-17T07:12:39.459Z,100658.06
2022-08-17T07:15:38.254Z,100653.03
2022-08-17T07:18:08.882Z,100661.31
2022-08-17T07:21:17.639Z,100615.09
2022-08-17T07:24:29.359Z,100670.94
2022-08-17T07:27:09.432Z,100652.44
2022-08-17T13:13:56.245Z,100568.16
2022-08-17T13:14:43.169Z,100556.75
2022-08-17T13:17:13.298Z,100533.78
2022-08-17T13:19:52.186Z,100575.44
2022-08-17T13:26:15.487Z,100561.47
2022-08-17T13:28:51.406Z,100549.97
2022-08-17T13:31:30.399Z,100566.44
2022-08-17T13:35:39.165Z,100580.38
2022-08-17T13:39:00.613Z,100546.91
2022-08-17T13:45:36.768Z,100546.88
2022-08-17T13:48:40.342Z,100578.69
2022-08-17T13:52:10.564Z,100551.22
2022-08-17T13:55:26.310Z,100569.81
2022-08-17T13:58:07.115Z,100553.41
2022-08-17T14:00:58.808Z,100540.56
2022-08-17T14:03:27.806Z,100551.19
2022-08-17T14:05:57.117Z,100578.09
2022-08-17T14:08:24.000Z,100561.19
2022-08-17T14:10:58.494Z,100550.59
2022-08-17T14:13:25.102Z,100551.34
2022-08-17T14:15:55.581Z,100564.44
2022-08-17T14:36:51.221Z,100568.25
2022-08-17T14:46:58.064Z,100540.44
2022-08-17T14:49:28.313Z,100543.06
2022-08-17T14:51:55.291Z,100522.16
2022-08-17T14:54:53.773Z,100516.88
2022-08-17T14:57:46.841Z,100505.66
2022-08-17T15:00:17.332Z,100525.56
2022-08-17T15:02:46.024Z,100540.69
2022-08-17T15:05:18.471Z,100517.78
2022-08-17T15:07:45.049Z,100554.44
2022-08-17T15:10:13.603Z,100548.94
2022-08-17T15:12:41.592Z,100540.44
2022-08-17T15:15:16.596Z,100518.06
2022-08-17T15:17:46.021Z,100526.13
2022-08-17T15:20:16.405Z,100527.72
2022-08-17T15:22:45.389Z,100505.66
2022-08-17T15:25:14.873Z,100509.59
2022-08-17T15:27:42.118Z,100546.44
2022-08-17T15:30:18.902Z,100548.22
2022-08-17T15:32:54.049Z,100544.03
2022-08-17T15:35:39.755Z,100502.06
2022-08-17T15:38:11.955Z,100530.09
2022-08-17T15:40:53.551Z,100521.13
2022-08-17T15:43:28.228Z,100507.22
2022-08-17T15:46:00.238Z,100536.59
2022-08-17T15:51:58.087Z,100516.56
2022-08-17T15:54:34.512Z,100504.22
2022-08-17T15:57:02.933Z,100512.50
2022-08-17T15:59:31.094Z,100506.75
2022-08-17T16:03:15.177Z,100493.63
2022-08-17T16:05:00.035Z,100495.00
2022-08-17T16:07:28.782Z,100536.34
2022-08-17T16:09:55.431Z,100501.94
2022-08-17T16:12:22.353Z,100542.19
2022-08-17T16:14:52.600Z,100523.50
2022-08-17T16:25:18.097Z,100520.63
2022-08-17T16:27:45.967Z,100507.84
2022-08-17T16:30:17.539Z,100483.56
2022-08-17T16:32:45.431Z,100520.75
2022-08-17T16:35:16.223Z,100487.09
2022-08-17T16:37:45.382Z,100511.22
2022-08-17T16:40:14.376Z,100487.44
2022-08-17T16:42:41.196Z,100507.38
2022-08-17T16:45:17.032Z,100479.59
2022-08-17T16:47:44.016Z,100515.66
2022-08-17T16:50:13.766Z,100510.41
2022-08-17T16:52:40.509Z,100493.34
2022-08-17T16:55:13.258Z,100510.78
2022-08-17T16:57:47.356Z,100481.25
2022-08-17T17:00:21.100Z,100507.41
2022-08-17T17:02:53.823Z,100478.66
2022-08-17T17:05:34.302Z,100502.06
2022-08-17T17:08:35.002Z,100500.41
2022-08-17T17:14:00.062Z,100512.88
2022-08-17T17:16:37.304Z,100498.00
2022-08-17T17:19:17.970Z,100521.16
2022-08-17T17:22:16.586Z,100504.25
2022-08-17T17:25:20.828Z,100520.38
2022-08-17T17:28:29.139Z,100525.19
2022-08-17T17:38:19.803Z,100514.31
2022-08-17T17:41:10.757Z,100475.22
2022-08-17T17:43:39.948Z,100507.69
2022-08-17T17:46:52.598Z,100524.19
2022-08-17T17:51:02.791Z,100515.19
2022-08-17T20:32:08.143Z,100548.50
2022-08-17T20:34:39.740Z,100532.94
2022-08-17T20:37:27.056Z,100532.44
2022-08-17T20:39:56.583Z,100544.75
2022-08-17T20:42:27.189Z,100559.50
2022-08-17T20:45:02.740Z,100518.69
2022-08-17T20:48:00.757Z,100526.75
2022-08-17T20:50:37.897Z,100529.28
2022-08-17T20:53:28.156Z,100557.84
2022-08-17T20:55:56.843Z,100539.34
2022-08-17T20:58:45.394Z,100517.84
2022-08-17T21:01:26.531Z,100547.63
2022-08-17T21:03:54.569Z,100531.25
2022-08-17T21:06:55.348Z,100524.50
2022-08-17T21:09:46.845Z,100502.97
2022-08-17T21:12:57.202Z,100552.06
2022-08-17T21:15:44.410Z,100547.94
2022-08-17T21:19:12.399Z,100531.69
2022-08-17T21:22:06.471Z,100545.84
2022-08-17T21:25:02.263Z,100562.75
2022-08-17T21:27:47.077Z,100559.47
2022-08-17T21:34:07.899Z,100544.63
2022-08-17T21:36:48.246Z,100546.81
2022-08-17T21:57:33.559Z,100518.06
2022-08-17T22:00:50.222Z,100522.41
2022-08-17T22:03:38.414Z,100542.44
2022-08-17T22:06:55.806Z,100564.06
2022-08-17T22:09:49.587Z,100519.63
2022-08-17T22:12:28.863Z,100521.75
2022-08-17T22:15:07.193Z,100556.56
2022-08-17T22:17:40.483Z,100547.34
2022-08-17T22:20:28.877Z,100546.38
2022-08-17T22:23:28.727Z,100575.56
2022-08-17T22:26:25.438Z,100543.59
2022-08-17T22:28:58.385Z,100531.13
2022-08-17T22:32:21.601Z,100532.44
2022-08-17T22:35:26.678Z,100565.28
2022-08-17T22:38:24.065Z,100563.47
2022-08-17T22:41:26.258Z,100527.22
2022-08-17T22:44:39.622Z,100575.16
2022-08-17T22:47:51.608Z,100570.16
2022-08-17T22:53:41.788Z,100535.63
2022-08-17T22:56:36.321Z,100544.16
2022-08-17T22:59:22.854Z,100582.03
2022-08-17T23:02:27.541Z,100586.66
2022-08-17T23:05:30.792Z,100580.75
2022-08-17T23:11:20.446Z,100588.50
2022-08-17T23:17:37.448Z,100532.84
2022-08-17T23:20:49.624Z,100593.44
2022-08-17T23:27:15.205Z,100542.66
2022-08-17T23:30:08.653Z,100568.78
2022-08-17T23:33:03.089Z,100522.00
2022-08-17T23:36:00.142Z,100525.03
2022-08-17T23:39:06.631Z,100560.13
2022-08-17T23:42:31.097Z,100560.75
2022-08-17T23:45:45.169Z,100520.69
2022-08-17T23:48:44.443Z,100510.94
2022-08-17T23:56:10.079Z,100520.38
2022-08-17T23:58:46.382Z,100512.31
